sensor_id;sensor_type;location;lat;lon;timestamp;temperature;humidity
70830;SHT30;58451;51.550;7.208;2022-07-01T00:00:28;15.11;88.71
70830;SHT30;58451;51.550;7.208;2022-07-01T00:02:55;15.11;88.75
70830;SHT30;58451;51.550;7.208;2022-07-01T00:05:22;15.13;89.00
70830;SHT30;58451;51.550;7.208;2022-07-01T00:07:49;15.14;89.29
70830;SHT30;58451;51.550;7.208;2022-07-01T00:10:16;15.18;89.44
70830;SHT30;58451;51.550;7.208;2022-07-01T00:12:43;15.24;89.85
70830;SHT30;58451;51.550;7.208;2022-07-01T00:15:10;15.28;89.88
70830;SHT30;58451;51.550;7.208;2022-07-01T00:17:37;15.28;89.43
70830;SHT30;58451;51.550;7.208;2022-07-01T00:20:06;15.28;89.42
70830;SHT30;58451;51.550;7.208;2022-07-01T00:22:34;15.29;89.33
70830;SHT30;58451;51.550;7.208;2022-07-01T00:25:03;15.29;89.38
70830;SHT30;58451;51.550;7.208;2022-07-01T00:27:31;15.32;89.75
70830;SHT30;58451;51.550;7.208;2022-07-01T00:29:57;15.32;89.72
70830;SHT30;58451;51.550;7.208;2022-07-01T00:32:24;15.33;89.34
70830;SHT30;58451;51.550;7.208;2022-07-01T00:34:51;15.33;89.61
70830;SHT30;58451;51.550;7.208;2022-07-01T00:37:18;15.33;89.18
70830;SHT30;58451;51.550;7.208;2022-07-01T00:39:45;15.31;89.15
70830;SHT30;58451;51.550;7.208;2022-07-01T00:42:12;15.31;88.98
70830;SHT30;58451;51.550;7.208;2022-07-01T00:44:39;15.29;88.46
70830;SHT30;58451;51.550;7.208;2022-07-01T00:47:08;15.32;88.90
70830;SHT30;58451;51.550;7.208;2022-07-01T00:49:39;15.34;88.94
70830;SHT30;58451;51.550;7.208;2022-07-01T00:52:07;15.34;88.89
70830;SHT30;58451;51.550;7.208;2022-07-01T00:54:36;15.36;89.09
70830;SHT30;58451;51.550;7.208;2022-07-01T00:57:10;15.36;89.25
70830;SHT30;58451;51.550;7.208;2022-07-01T00:59:38;15.35;88.73
70830;SHT30;58451;51.550;7.208;2022-07-01T01:02:08;15.35;88.86
70830;SHT30;58451;51.550;7.208;2022-07-01T01:04:35;15.33;88.46
70830;SHT30;58451;51.550;7.208;2022-07-01T01:07:03;15.35;88.75
70830;SHT30;58451;51.550;7.208;2022-07-01T01:09:31;15.39;89.33
70830;SHT30;58451;51.550;7.208;2022-07-01T01:11:57;15.39;89.24
70830;SHT30;58451;51.550;7.208;2022-07-01T01:14:25;15.41;89.21
70830;SHT30;58451;51.550;7.208;2022-07-01T01:16:52;15.39;88.94
70830;SHT30;58451;51.550;7.208;2022-07-01T01:19:19;15.36;88.37
70830;SHT30;58451;51.550;7.208;2022-07-01T01:21:46;15.36;88.91
70830;SHT30;58451;51.550;7.208;2022-07-01T01:24:14;15.44;89.81
70830;SHT30;58451;51.550;7.208;2022-07-01T01:26:41;15.42;89.24
70830;SHT30;58451;51.550;7.208;2022-07-01T01:29:08;15.43;89.24
70830;SHT30;58451;51.550;7.208;2022-07-01T01:31:34;15.44;89.45
70830;SHT30;58451;51.550;7.208;2022-07-01T01:34:02;15.41;89.14
70830;SHT30;58451;51.550;7.208;2022-07-01T01:36:29;15.40;88.91
70830;SHT30;58451;51.550;7.208;2022-07-01T01:38:56;15.36;88.40
70830;SHT30;58451;51.550;7.208;2022-07-01T01:41:38;15.37;88.70
70830;SHT30;58451;51.550;7.208;2022-07-01T01:44:05;15.38;88.45
70830;SHT30;58451;51.550;7.208;2022-07-01T01:46:32;15.35;88.16
70830;SHT30;58451;51.550;7.208;2022-07-01T01:49:02;15.33;87.93
70830;SHT30;58451;51.550;7.208;2022-07-01T01:51:31;15.28;87.18
70830;SHT30;58451;51.550;7.208;2022-07-01T01:53:59;15.24;87.60
70830;SHT30;58451;51.550;7.208;2022-07-01T01:56:26;15.24;87.86
70830;SHT30;58451;51.550;7.208;2022-07-01T01:58:53;15.23;87.38
70830;SHT30;58451;51.550;7.208;2022-07-01T02:01:20;15.21;86.92
70830;SHT30;58451;51.550;7.208;2022-07-01T02:03:48;15.19;86.98
70830;SHT30;58451;51.550;7.208;2022-07-01T02:06:18;15.17;86.92
70830;SHT30;58451;51.550;7.208;2022-07-01T02:08:46;15.19;87.52
70830;SHT30;58451;51.550;7.208;2022-07-01T02:11:14;15.17;87.05
70830;SHT30;58451;51.550;7.208;2022-07-01T02:13:41;15.17;87.33
70830;SHT30;58451;51.550;7.208;2022-07-01T02:16:08;15.22;88.08
70830;SHT30;58451;51.550;7.208;2022-07-01T02:18:35;15.25;88.49
70830;SHT30;58451;51.550;7.208;2022-07-01T02:21:01;15.22;87.35
70830;SHT30;58451;51.550;7.208;2022-07-01T02:23:35;15.20;87.46
70830;SHT30;58451;51.550;7.208;2022-07-01T02:26:03;15.19;86.70
70830;SHT30;58451;51.550;7.208;2022-07-01T02:28:30;15.15;86.41
70830;SHT30;58451;51.550;7.208;2022-07-01T02:30:56;15.11;86.09
70830;SHT30;58451;51.550;7.208;2022-07-01T02:33:23;15.07;85.73
70830;SHT30;58451;51.550;7.208;2022-07-01T02:35:50;15.04;85.23
70830;SHT30;58451;51.550;7.208;2022-07-01T02:38:17;15.04;85.41
70830;SHT30;58451;51.550;7.208;2022-07-01T02:40:44;15.01;84.84
70830;SHT30;58451;51.550;7.208;2022-07-01T02:43:11;14.96;84.58
70830;SHT30;58451;51.550;7.208;2022-07-01T02:45:38;14.94;84.97
70830;SHT30;58451;51.550;7.208;2022-07-01T02:48:06;14.95;85.22
70830;SHT30;58451;51.550;7.208;2022-07-01T02:50:33;14.93;85.06
70830;SHT30;58451;51.550;7.208;2022-07-01T02:53:00;14.96;85.44
70830;SHT30;58451;51.550;7.208;2022-07-01T02:55:27;14.99;85.42
70830;SHT30;58451;51.550;7.208;2022-07-01T02:57:55;15.02;85.57
70830;SHT30;58451;51.550;7.208;2022-07-01T03:00:23;15.04;85.55
70830;SHT30;58451;51.550;7.208;2022-07-01T03:02:51;15.02;85.05
70830;SHT30;58451;51.550;7.208;2022-07-01T03:05:18;15.02;85.45
70830;SHT30;58451;51.550;7.208;2022-07-01T03:07:45;15.08;86.09
70830;SHT30;58451;51.550;7.208;2022-07-01T03:10:12;15.13;86.50
70830;SHT30;58451;51.550;7.208;2022-07-01T03:12:39;15.15;86.91
70830;SHT30;58451;51.550;7.208;2022-07-01T03:15:08;15.13;86.58
70830;SHT30;58451;51.550;7.208;2022-07-01T03:17:37;15.12;86.45
70830;SHT30;58451;51.550;7.208;2022-07-01T03:20:07;15.15;86.53
70830;SHT30;58451;51.550;7.208;2022-07-01T03:22:37;15.20;87.19
70830;SHT30;58451;51.550;7.208;2022-07-01T03:25:06;15.23;87.45
70830;SHT30;58451;51.550;7.208;2022-07-01T03:27:34;15.27;87.46
70830;SHT30;58451;51.550;7.208;2022-07-01T03:30:03;15.27;87.09
70830;SHT30;58451;51.550;7.208;2022-07-01T03:32:32;15.28;87.18
70830;SHT30;58451;51.550;7.208;2022-07-01T03:35:00;15.25;87.14
70830;SHT30;58451;51.550;7.208;2022-07-01T03:37:47;15.23;87.01
70830;SHT30;58451;51.550;7.208;2022-07-01T03:40:15;15.23;87.37
70830;SHT30;58451;51.550;7.208;2022-07-01T03:42:42;15.22;87.09
70830;SHT30;58451;51.550;7.208;2022-07-01T03:45:09;15.20;86.55
70830;SHT30;58451;51.550;7.208;2022-07-01T03:47:36;15.14;85.98
70830;SHT30;58451;51.550;7.208;2022-07-01T03:50:03;15.10;85.94
70830;SHT30;58451;51.550;7.208;2022-07-01T03:52:31;15.08;85.96
70830;SHT30;58451;51.550;7.208;2022-07-01T03:54:59;15.11;86.34
70830;SHT30;58451;51.550;7.208;2022-07-01T03:57:25;15.11;86.01
70830;SHT30;58451;51.550;7.208;2022-07-01T03:59:52;15.08;85.73
70830;SHT30;58451;51.550;7.208;2022-07-01T04:02:20;15.03;85.49
70830;SHT30;58451;51.550;7.208;2022-07-01T04:04:46;15.03;85.71
70830;SHT30;58451;51.550;7.208;2022-07-01T04:07:13;15.05;85.65
70830;SHT30;58451;51.550;7.208;2022-07-01T04:09:40;15.02;85.48
70830;SHT30;58451;51.550;7.208;2022-07-01T04:12:08;15.01;85.52
70830;SHT30;58451;51.550;7.208;2022-07-01T04:14:38;15.02;85.39
70830;SHT30;58451;51.550;7.208;2022-07-01T04:17:06;14.99;85.45
70830;SHT30;58451;51.550;7.208;2022-07-01T04:19:33;15.01;85.52
70830;SHT30;58451;51.550;7.208;2022-07-01T04:22:02;14.99;85.26
70830;SHT30;58451;51.550;7.208;2022-07-01T04:24:48;15.02;85.23
70830;SHT30;58451;51.550;7.208;2022-07-01T04:27:15;15.05;85.39
70830;SHT30;58451;51.550;7.208;2022-07-01T04:29:42;15.09;85.76
70830;SHT30;58451;51.550;7.208;2022-07-01T04:32:09;15.13;85.90
70830;SHT30;58451;51.550;7.208;2022-07-01T04:34:36;15.12;85.81
70830;SHT30;58451;51.550;7.208;2022-07-01T04:37:03;15.13;85.62
70830;SHT30;58451;51.550;7.208;2022-07-01T04:39:31;15.13;85.54
70830;SHT30;58451;51.550;7.208;2022-07-01T04:41:57;15.14;85.31
70830;SHT30;58451;51.550;7.208;2022-07-01T04:44:28;15.16;85.51
70830;SHT30;58451;51.550;7.208;2022-07-01T04:46:58;15.22;85.64
70830;SHT30;58451;51.550;7.208;2022-07-01T04:49:26;15.20;84.81
70830;SHT30;58451;51.550;7.208;2022-07-01T04:51:54;15.21;85.08
70830;SHT30;58451;51.550;7.208;2022-07-01T04:54:22;15.26;85.08
70830;SHT30;58451;51.550;7.208;2022-07-01T04:56:50;15.27;84.58
70830;SHT30;58451;51.550;7.208;2022-07-01T04:59:17;15.28;84.68
70830;SHT30;58451;51.550;7.208;2022-07-01T05:01:46;15.31;84.64
70830;SHT30;58451;51.550;7.208;2022-07-01T05:04:17;15.31;84.36
70830;SHT30;58451;51.550;7.208;2022-07-01T05:06:45;15.30;84.26
70830;SHT30;58451;51.550;7.208;2022-07-01T05:09:13;15.30;84.32
70830;SHT30;58451;51.550;7.208;2022-07-01T05:11:40;15.32;84.21
70830;SHT30;58451;51.550;7.208;2022-07-01T05:14:07;15.39;84.67
70830;SHT30;58451;51.550;7.208;2022-07-01T05:16:35;15.43;84.44
70830;SHT30;58451;51.550;7.208;2022-07-01T05:19:03;15.48;84.42
70830;SHT30;58451;51.550;7.208;2022-07-01T05:22:03;15.49;83.59
70830;SHT30;58451;51.550;7.208;2022-07-01T05:24:31;15.53;83.70
70830;SHT30;58451;51.550;7.208;2022-07-01T05:26:59;15.55;83.53
70830;SHT30;58451;51.550;7.208;2022-07-01T05:29:28;15.58;83.34
70830;SHT30;58451;51.550;7.208;2022-07-01T05:31:55;15.59;83.11
70830;SHT30;58451;51.550;7.208;2022-07-01T05:34:22;15.64;83.04
70830;SHT30;58451;51.550;7.208;2022-07-01T05:36:50;15.71;83.24
70830;SHT30;58451;51.550;7.208;2022-07-01T05:39:17;15.83;83.26
70830;SHT30;58451;51.550;7.208;2022-07-01T05:41:43;15.84;82.46
70830;SHT30;58451;51.550;7.208;2022-07-01T05:44:12;15.86;82.28
70830;SHT30;58451;51.550;7.208;2022-07-01T05:46:39;15.89;82.38
70830;SHT30;58451;51.550;7.208;2022-07-01T05:49:06;15.97;82.55
70830;SHT30;58451;51.550;7.208;2022-07-01T05:51:33;16.04;82.21
70830;SHT30;58451;51.550;7.208;2022-07-01T05:54:00;16.07;81.67
70830;SHT30;58451;51.550;7.208;2022-07-01T05:56:27;16.10;81.69
70830;SHT30;58451;51.550;7.208;2022-07-01T05:58:54;16.16;81.93
70830;SHT30;58451;51.550;7.208;2022-07-01T06:01:21;16.29;81.58
70830;SHT30;58451;51.550;7.208;2022-07-01T06:03:48;16.31;80.89
70830;SHT30;58451;51.550;7.208;2022-07-01T06:06:15;16.39;81.00
70830;SHT30;58451;51.550;7.208;2022-07-01T06:08:44;16.60;81.81
70830;SHT30;58451;51.550;7.208;2022-07-01T06:11:12;16.67;81.37
70830;SHT30;58451;51.550;7.208;2022-07-01T06:13:39;16.53;80.38
70830;SHT30;58451;51.550;7.208;2022-07-01T06:16:06;16.52;80.71
70830;SHT30;58451;51.550;7.208;2022-07-01T06:18:33;16.67;80.86
70830;SHT30;58451;51.550;7.208;2022-07-01T06:21:00;16.81;80.75
70830;SHT30;58451;51.550;7.208;2022-07-01T06:23:27;16.92;80.89
70830;SHT30;58451;51.550;7.208;2022-07-01T06:25:54;17.23;80.14
70830;SHT30;58451;51.550;7.208;2022-07-01T06:28:20;17.26;78.95
70830;SHT30;58451;51.550;7.208;2022-07-01T06:30:47;17.35;78.71
70830;SHT30;58451;51.550;7.208;2022-07-01T06:33:14;17.45;78.07
70830;SHT30;58451;51.550;7.208;2022-07-01T06:35:41;17.55;76.81
70830;SHT30;58451;51.550;7.208;2022-07-01T06:38:08;17.51;75.88
70830;SHT30;58451;51.550;7.208;2022-07-01T06:40:35;17.33;76.29
70830;SHT30;58451;51.550;7.208;2022-07-01T06:43:02;17.42;77.04
70830;SHT30;58451;51.550;7.208;2022-07-01T06:45:29;17.62;77.10
70830;SHT30;58451;51.550;7.208;2022-07-01T06:47:58;17.76;75.72
70830;SHT30;58451;51.550;7.208;2022-07-01T06:50:24;17.75;74.86
70830;SHT30;58451;51.550;7.208;2022-07-01T06:52:52;17.85;74.78
70830;SHT30;58451;51.550;7.208;2022-07-01T06:55:19;18.17;73.62
70830;SHT30;58451;51.550;7.208;2022-07-01T06:57:45;18.59;72.25
70830;SHT30;58451;51.550;7.208;2022-07-01T07:00:12;18.87;71.98
70830;SHT30;58451;51.550;7.208;2022-07-01T07:02:40;19.24;71.98
70830;SHT30;58451;51.550;7.208;2022-07-01T07:05:07;19.29;70.30
70830;SHT30;58451;51.550;7.208;2022-07-01T07:07:37;19.38;71.98
70830;SHT30;58451;51.550;7.208;2022-07-01T07:10:04;19.17;70.24
70830;SHT30;58451;51.550;7.208;2022-07-01T07:12:32;18.70;69.94
70830;SHT30;58451;51.550;7.208;2022-07-01T07:14:59;18.69;70.67
70830;SHT30;58451;51.550;7.208;2022-07-01T07:17:26;18.98;70.71
70830;SHT30;58451;51.550;7.208;2022-07-01T07:19:54;19.13;69.41
70830;SHT30;58451;51.550;7.208;2022-07-01T07:22:22;19.18;69.71
70830;SHT30;58451;51.550;7.208;2022-07-01T07:24:50;19.34;69.19
70830;SHT30;58451;51.550;7.208;2022-07-01T07:27:17;19.56;68.51
70830;SHT30;58451;51.550;7.208;2022-07-01T07:29:44;19.39;67.37
70830;SHT30;58451;51.550;7.208;2022-07-01T07:32:10;19.11;68.01
70830;SHT30;58451;51.550;7.208;2022-07-01T07:34:37;19.12;69.33
70830;SHT30;58451;51.550;7.208;2022-07-01T07:37:05;19.27;69.16
70830;SHT30;58451;51.550;7.208;2022-07-01T07:39:34;19.32;68.66
70830;SHT30;58451;51.550;7.208;2022-07-01T07:42:01;19.46;68.77
70830;SHT30;58451;51.550;7.208;2022-07-01T07:44:27;19.81;67.86
70830;SHT30;58451;51.550;7.208;2022-07-01T07:46:55;20.08;65.67
70830;SHT30;58451;51.550;7.208;2022-07-01T07:49:24;20.23;65.31
70830;SHT30;58451;51.550;7.208;2022-07-01T07:51:52;20.24;64.69
70830;SHT30;58451;51.550;7.208;2022-07-01T07:54:20;20.08;64.52
70830;SHT30;58451;51.550;7.208;2022-07-01T07:56:47;20.13;64.90
70830;SHT30;58451;51.550;7.208;2022-07-01T07:59:14;20.14;64.94
70830;SHT30;58451;51.550;7.208;2022-07-01T08:01:41;20.36;65.42
70830;SHT30;58451;51.550;7.208;2022-07-01T08:04:08;20.58;64.24
70830;SHT30;58451;51.550;7.208;2022-07-01T08:06:35;20.52;62.88
70830;SHT30;58451;51.550;7.208;2022-07-01T08:09:03;20.27;62.53
70830;SHT30;58451;51.550;7.208;2022-07-01T08:11:30;20.16;61.73
70830;SHT30;58451;51.550;7.208;2022-07-01T08:13:57;20.11;61.31
70830;SHT30;58451;51.550;7.208;2022-07-01T08:16:24;20.30;61.81
70830;SHT30;58451;51.550;7.208;2022-07-01T08:18:52;20.18;61.40
70830;SHT30;58451;51.550;7.208;2022-07-01T08:21:18;20.15;61.52
70830;SHT30;58451;51.550;7.208;2022-07-01T08:23:45;20.28;61.01
70830;SHT30;58451;51.550;7.208;2022-07-01T08:26:12;20.08;60.75
70830;SHT30;58451;51.550;7.208;2022-07-01T08:28:42;19.92;61.73
70830;SHT30;58451;51.550;7.208;2022-07-01T08:31:09;19.85;62.17
70830;SHT30;58451;51.550;7.208;2022-07-01T08:33:37;19.77;62.81
70830;SHT30;58451;51.550;7.208;2022-07-01T08:36:04;19.68;62.09
70830;SHT30;58451;51.550;7.208;2022-07-01T08:38:33;19.57;63.07
70830;SHT30;58451;51.550;7.208;2022-07-01T08:41:02;19.66;62.86
70830;SHT30;58451;51.550;7.208;2022-07-01T08:43:31;19.74;62.71
70830;SHT30;58451;51.550;7.208;2022-07-01T08:46:01;19.72;62.20
70830;SHT30;58451;51.550;7.208;2022-07-01T08:48:29;19.50;61.03
70830;SHT30;58451;51.550;7.208;2022-07-01T08:50:57;19.66;62.00
70830;SHT30;58451;51.550;7.208;2022-07-01T08:53:24;20.04;61.82
70830;SHT30;58451;51.550;7.208;2022-07-01T08:55:51;20.12;60.81
70830;SHT30;58451;51.550;7.208;2022-07-01T08:58:36;20.10;60.46
70830;SHT30;58451;51.550;7.208;2022-07-01T09:03:49;20.75;60.62
70830;SHT30;58451;51.550;7.208;2022-07-01T09:06:21;21.13;59.23
70830;SHT30;58451;51.550;7.208;2022-07-01T09:09:09;21.21;58.24
70830;SHT30;58451;51.550;7.208;2022-07-01T09:14:25;21.30;57.36
70830;SHT30;58451;51.550;7.208;2022-07-01T09:16:56;21.35;57.73
70830;SHT30;58451;51.550;7.208;2022-07-01T09:19:36;21.54;56.43
70830;SHT30;58451;51.550;7.208;2022-07-01T09:22:12;21.42;55.94
70830;SHT30;58451;51.550;7.208;2022-07-01T09:24:42;21.69;56.14
70830;SHT30;58451;51.550;7.208;2022-07-01T09:27:11;21.65;54.37
70830;SHT30;58451;51.550;7.208;2022-07-01T09:29:49;21.18;56.79
70830;SHT30;58451;51.550;7.208;2022-07-01T09:32:17;20.97;55.83
70830;SHT30;58451;51.550;7.208;2022-07-01T09:34:51;20.53;55.82
70830;SHT30;58451;51.550;7.208;2022-07-01T09:37:24;20.45;56.92
70830;SHT30;58451;51.550;7.208;2022-07-01T09:39:53;20.66;56.31
70830;SHT30;58451;51.550;7.208;2022-07-01T09:42:23;20.75;56.17
70830;SHT30;58451;51.550;7.208;2022-07-01T09:44:59;21.09;57.26
70830;SHT30;58451;51.550;7.208;2022-07-01T09:47:34;21.59;54.33
70830;SHT30;58451;51.550;7.208;2022-07-01T09:50:05;21.66;54.43
70830;SHT30;58451;51.550;7.208;2022-07-01T09:52:35;21.85;53.31
70830;SHT30;58451;51.550;7.208;2022-07-01T09:55:05;22.07;53.94
70830;SHT30;58451;51.550;7.208;2022-07-01T09:57:34;22.53;53.63
70830;SHT30;58451;51.550;7.208;2022-07-01T10:00:03;22.74;51.43
70830;SHT30;58451;51.550;7.208;2022-07-01T10:02:33;22.70;51.05
70830;SHT30;58451;51.550;7.208;2022-07-01T10:05:14;22.58;48.85
70830;SHT30;58451;51.550;7.208;2022-07-01T10:14:12;21.89;48.72
70830;SHT30;58451;51.550;7.208;2022-07-01T10:16:41;21.84;49.23
70830;SHT30;58451;51.550;7.208;2022-07-01T10:21:50;22.19;49.31
70830;SHT30;58451;51.550;7.208;2022-07-01T10:24:24;22.24;50.23
70830;SHT30;58451;51.550;7.208;2022-07-01T10:26:57;22.26;48.65
70830;SHT30;58451;51.550;7.208;2022-07-01T10:35:16;22.93;48.01
70830;SHT30;58451;51.550;7.208;2022-07-01T10:38:00;22.76;46.66
70830;SHT30;58451;51.550;7.208;2022-07-01T10:40:44;22.47;45.38
70830;SHT30;58451;51.550;7.208;2022-07-01T10:43:17;22.50;46.69
70830;SHT30;58451;51.550;7.208;2022-07-01T10:45:59;22.88;47.12
70830;SHT30;58451;51.550;7.208;2022-07-01T10:48:30;23.07;45.43
70830;SHT30;58451;51.550;7.208;2022-07-01T10:50:59;23.25;45.28
70830;SHT30;58451;51.550;7.208;2022-07-01T10:53:41;23.48;43.45
70830;SHT30;58451;51.550;7.208;2022-07-01T10:56:23;23.48;43.64
70830;SHT30;58451;51.550;7.208;2022-07-01T10:59:05;23.69;43.83
70830;SHT30;58451;51.550;7.208;2022-07-01T11:01:34;23.39;41.03
70830;SHT30;58451;51.550;7.208;2022-07-01T11:04:01;22.92;42.20
70830;SHT30;58451;51.550;7.208;2022-07-01T11:06:28;22.66;44.17
70830;SHT30;58451;51.550;7.208;2022-07-01T11:08:56;22.45;44.45
70830;SHT30;58451;51.550;7.208;2022-07-01T11:11:25;22.34;43.88
70830;SHT30;58451;51.550;7.208;2022-07-01T11:13:51;22.44;43.19
70830;SHT30;58451;51.550;7.208;2022-07-01T11:16:23;22.47;42.90
70830;SHT30;58451;51.550;7.208;2022-07-01T11:18:51;22.59;43.89
70830;SHT30;58451;51.550;7.208;2022-07-01T11:21:19;23.01;42.48
70830;SHT30;58451;51.550;7.208;2022-07-01T11:23:53;23.20;41.52
70830;SHT30;58451;51.550;7.208;2022-07-01T11:26:22;23.50;42.64
70830;SHT30;58451;51.550;7.208;2022-07-01T11:28:50;23.83;42.61
70830;SHT30;58451;51.550;7.208;2022-07-01T11:31:30;24.00;41.25
70830;SHT30;58451;51.550;7.208;2022-07-01T11:33:59;23.99;39.87
70830;SHT30;58451;51.550;7.208;2022-07-01T11:36:27;23.79;39.56
70830;SHT30;58451;51.550;7.208;2022-07-01T11:39:12;23.80;39.60
70830;SHT30;58451;51.550;7.208;2022-07-01T11:41:54;23.78;40.53
70830;SHT30;58451;51.550;7.208;2022-07-01T11:44:33;23.99;39.57
70830;SHT30;58451;51.550;7.208;2022-07-01T11:47:07;23.96;39.27
70830;SHT30;58451;51.550;7.208;2022-07-01T11:49:44;23.87;40.00
70830;SHT30;58451;51.550;7.208;2022-07-01T11:52:14;23.93;39.19
70830;SHT30;58451;51.550;7.208;2022-07-01T11:54:46;23.97;39.81
70830;SHT30;58451;51.550;7.208;2022-07-01T11:57:39;24.37;39.01
70830;SHT30;58451;51.550;7.208;2022-07-01T12:00:12;24.39;38.51
70830;SHT30;58451;51.550;7.208;2022-07-01T12:02:49;24.05;38.61
70830;SHT30;58451;51.550;7.208;2022-07-01T12:05:17;23.80;38.74
70830;SHT30;58451;51.550;7.208;2022-07-01T12:07:45;23.62;39.04
70830;SHT30;58451;51.550;7.208;2022-07-01T12:10:14;23.65;39.56
70830;SHT30;58451;51.550;7.208;2022-07-01T12:12:43;23.90;39.42
70830;SHT30;58451;51.550;7.208;2022-07-01T12:15:12;24.04;38.97
70830;SHT30;58451;51.550;7.208;2022-07-01T12:17:41;23.79;39.18
70830;SHT30;58451;51.550;7.208;2022-07-01T12:20:08;23.75;40.24
70830;SHT30;58451;51.550;7.208;2022-07-01T12:22:35;23.79;40.79
70830;SHT30;58451;51.550;7.208;2022-07-01T12:25:06;23.82;40.26
70830;SHT30;58451;51.550;7.208;2022-07-01T12:27:40;24.01;40.85
70830;SHT30;58451;51.550;7.208;2022-07-01T12:30:11;24.24;39.26
70830;SHT30;58451;51.550;7.208;2022-07-01T12:32:50;24.15;39.23
70830;SHT30;58451;51.550;7.208;2022-07-01T12:35:23;24.24;39.74
70830;SHT30;58451;51.550;7.208;2022-07-01T12:38:00;24.54;38.69
70830;SHT30;58451;51.550;7.208;2022-07-01T12:40:28;24.74;37.81
70830;SHT30;58451;51.550;7.208;2022-07-01T12:42:55;24.80;36.93
70830;SHT30;58451;51.550;7.208;2022-07-01T12:45:26;24.73;37.31
70830;SHT30;58451;51.550;7.208;2022-07-01T12:47:56;24.72;38.25
70830;SHT30;58451;51.550;7.208;2022-07-01T12:50:28;24.83;37.60
70830;SHT30;58451;51.550;7.208;2022-07-01T12:53:00;24.85;38.19
70830;SHT30;58451;51.550;7.208;2022-07-01T12:58:09;25.46;36.42
70830;SHT30;58451;51.550;7.208;2022-07-01T13:00:44;25.64;34.76
70830;SHT30;58451;51.550;7.208;2022-07-01T13:03:17;25.58;34.88
70830;SHT30;58451;51.550;7.208;2022-07-01T13:05:48;25.58;35.12
70830;SHT30;58451;51.550;7.208;2022-07-01T13:08:18;25.39;34.77
70830;SHT30;58451;51.550;7.208;2022-07-01T13:10:46;25.12;35.44
70830;SHT30;58451;51.550;7.208;2022-07-01T13:13:14;24.86;36.00
70830;SHT30;58451;51.550;7.208;2022-07-01T13:15:46;24.63;35.78
70830;SHT30;58451;51.550;7.208;2022-07-01T13:18:14;24.51;35.88
70830;SHT30;58451;51.550;7.208;2022-07-01T13:20:42;24.39;35.56
70830;SHT30;58451;51.550;7.208;2022-07-01T13:23:11;24.55;35.99
70830;SHT30;58451;51.550;7.208;2022-07-01T13:25:38;24.88;35.71
70830;SHT30;58451;51.550;7.208;2022-07-01T13:28:06;24.96;34.77
70830;SHT30;58451;51.550;7.208;2022-07-01T13:30:33;24.77;35.23
70830;SHT30;58451;51.550;7.208;2022-07-01T13:33:02;24.66;34.97
70830;SHT30;58451;51.550;7.208;2022-07-01T13:35:29;24.71;36.39
70830;SHT30;58451;51.550;7.208;2022-07-01T13:37:56;25.61;35.34
70830;SHT30;58451;51.550;7.208;2022-07-01T13:40:23;26.60;34.88
70830;SHT30;58451;51.550;7.208;2022-07-01T13:42:50;27.34;31.83
70830;SHT30;58451;51.550;7.208;2022-07-01T13:45:17;26.91;31.58
70830;SHT30;58451;51.550;7.208;2022-07-01T13:47:44;26.16;31.92
70830;SHT30;58451;51.550;7.208;2022-07-01T13:50:10;25.45;32.49
70830;SHT30;58451;51.550;7.208;2022-07-01T13:52:39;25.01;33.43
70830;SHT30;58451;51.550;7.208;2022-07-01T13:55:12;24.93;33.94
70830;SHT30;58451;51.550;7.208;2022-07-01T13:57:40;25.96;32.64
70830;SHT30;58451;51.550;7.208;2022-07-01T14:00:07;26.73;32.24
70830;SHT30;58451;51.550;7.208;2022-07-01T14:02:35;28.16;30.35
70830;SHT30;58451;51.550;7.208;2022-07-01T14:05:02;28.44;31.02
70830;SHT30;58451;51.550;7.208;2022-07-01T14:07:30;28.47;29.34
70830;SHT30;58451;51.550;7.208;2022-07-01T14:09:57;28.47;30.45
70830;SHT30;58451;51.550;7.208;2022-07-01T14:12:24;30.01;27.12
70830;SHT30;58451;51.550;7.208;2022-07-01T14:14:54;30.64;26.15
70830;SHT30;58451;51.550;7.208;2022-07-01T14:17:23;31.60;25.37
70830;SHT30;58451;51.550;7.208;2022-07-01T14:19:51;31.06;25.25
70830;SHT30;58451;51.550;7.208;2022-07-01T14:22:18;31.98;25.27
70830;SHT30;58451;51.550;7.208;2022-07-01T14:24:45;32.53;24.46
70830;SHT30;58451;51.550;7.208;2022-07-01T14:27:12;31.01;25.27
70830;SHT30;58451;51.550;7.208;2022-07-01T14:29:39;30.35;25.41
70830;SHT30;58451;51.550;7.208;2022-07-01T14:32:07;30.60;25.15
70830;SHT30;58451;51.550;7.208;2022-07-01T14:34:34;30.90;25.26
70830;SHT30;58451;51.550;7.208;2022-07-01T14:37:02;32.14;25.50
70830;SHT30;58451;51.550;7.208;2022-07-01T14:39:29;32.32;24.40
70830;SHT30;58451;51.550;7.208;2022-07-01T14:41:56;30.35;26.30
70830;SHT30;58451;51.550;7.208;2022-07-01T14:44:23;28.90;27.88
70830;SHT30;58451;51.550;7.208;2022-07-01T14:46:50;27.76;29.46
70830;SHT30;58451;51.550;7.208;2022-07-01T14:49:18;27.13;30.56
70830;SHT30;58451;51.550;7.208;2022-07-01T14:51:45;27.53;29.93
70830;SHT30;58451;51.550;7.208;2022-07-01T14:54:12;28.21;28.66
70830;SHT30;58451;51.550;7.208;2022-07-01T14:56:39;29.82;27.11
70830;SHT30;58451;51.550;7.208;2022-07-01T14:59:06;29.78;27.06
70830;SHT30;58451;51.550;7.208;2022-07-01T15:01:36;28.65;28.26
70830;SHT30;58451;51.550;7.208;2022-07-01T15:04:04;28.70;28.08
70830;SHT30;58451;51.550;7.208;2022-07-01T15:06:31;28.59;28.09
70830;SHT30;58451;51.550;7.208;2022-07-01T15:08:58;29.03;27.80
70830;SHT30;58451;51.550;7.208;2022-07-01T15:11:25;29.89;26.93
70830;SHT30;58451;51.550;7.208;2022-07-01T15:13:52;28.92;28.19
70830;SHT30;58451;51.550;7.208;2022-07-01T15:16:19;30.69;26.86
70830;SHT30;58451;51.550;7.208;2022-07-01T15:18:47;30.32;27.08
70830;SHT30;58451;51.550;7.208;2022-07-01T15:21:14;30.53;26.49
70830;SHT30;58451;51.550;7.208;2022-07-01T15:23:41;30.11;27.20
70830;SHT30;58451;51.550;7.208;2022-07-01T15:26:08;28.89;28.01
70830;SHT30;58451;51.550;7.208;2022-07-01T15:28:35;28.67;28.53
70830;SHT30;58451;51.550;7.208;2022-07-01T15:31:02;29.26;27.73
70830;SHT30;58451;51.550;7.208;2022-07-01T15:33:29;31.52;25.53
70830;SHT30;58451;51.550;7.208;2022-07-01T15:35:56;33.57;22.61
70830;SHT30;58451;51.550;7.208;2022-07-01T15:38:23;32.36;23.09
70830;SHT30;58451;51.550;7.208;2022-07-01T15:40:50;32.40;22.24
70830;SHT30;58451;51.550;7.208;2022-07-01T15:43:20;34.06;20.51
70830;SHT30;58451;51.550;7.208;2022-07-01T15:45:47;35.10;19.82
70830;SHT30;58451;51.550;7.208;2022-07-01T15:48:18;36.06;19.58
70830;SHT30;58451;51.550;7.208;2022-07-01T15:50:46;35.51;20.03
70830;SHT30;58451;51.550;7.208;2022-07-01T15:53:15;33.03;22.48
70830;SHT30;58451;51.550;7.208;2022-07-01T15:55:44;30.58;24.70
70830;SHT30;58451;51.550;7.208;2022-07-01T15:58:12;30.05;25.61
70830;SHT30;58451;51.550;7.208;2022-07-01T16:00:42;32.73;23.11
70830;SHT30;58451;51.550;7.208;2022-07-01T16:03:13;34.77;20.56